Walnut Hill, Florida
Current Conditions -  °F | °C
As of 7:56 AM on Sunday 23 Nov 2014 (Local Time) from KNSE Reporting Station
Light Rain Light Rain  
Wind Chill: 23°   Ceiling: 600
Heat Index: 23°   Visibility: 10mi
Dew Point: 22°   Wind: 20mph
Humidity: 93%   Direction: 160°SSE
Pressure: 29.8"   Gusts: 28mph
Location:  30.8697°N, 87.4663°W
Report Text: KNSE 231356Z AUTO 16017G24KT 10SM -RA OVC006 23/22 A2980 RMK AO2 RAB04E22B48 CIG 005V010 SLP075 P0000 T02280217 $
Loading
Personal Weather Stations






























Interactive Weather Map New forecast layout! Learn more

10-Day Weather Forecast

Advertisements
Track Severe Weather on mobile